WA5KWK Weather Reports


Display with metric or nautical units.
time (UTC)temp
F
wind
direction
speed
MPH
gust
MPH
rain 1hr
in
rain 24hr
in
rain mn
in
humidity
%
barometer
mb
20220816012520 91 278 2.0 3.0 0.00 0.00 0.00 16 1015.3
20220816002517 93 247 2.0 3.0 0.00 0.00 0.00 16 1015.3
20220816000517 93 283 2.0 5.0 0.00 0.00 0.00 15 1015.3
20220815235517 94 262 2.0 5.0 0.00 0.00 0.00 15 1015.3
20220815234518 95 249 2.0 3.0 0.00 0.00 0.00 15 1015.3
20220815233518 95 260 2.0 3.0 0.00 0.00 0.00 15 1015.3
20220815231517 95 275 2.0 6.0 0.00 0.00 0.00 14 1015.3
20220815225518 95 258 2.0 6.0 0.00 0.00 0.00 15 1015.3
20220815224517 95 241 2.0 5.0 0.00 0.00 0.00 15 1015.3
20220815223518 95 260 2.0 10.0 0.00 0.00 0.00 15 1015.3
20220815220517 95 261 2.0 7.0 0.00 0.00 0.00 16 1015.3
20220815214517 93 245 3.0 6.0 0.00 0.00 0.00 16 1015.3
20220815212517 93 194 3.0 12.0 0.00 0.00 0.00 16 1015.3
20220815211517 94 215 3.0 12.0 0.00 0.00 0.00 17 1015.3
20220815210518 93 246 3.0 9.0 0.00 0.00 0.00 17 1015.3
20220815203517 94 261 2.0 9.0 0.00 0.00 0.00 17 1015.3
20220815201517 92 203 3.0 10.0 0.00 0.00 0.00 17 1015.3
20220815195517 92 252 2.0 5.0 0.00 0.00 0.00 18 1015.3
20220815193517 91 200 3.0 9.0 0.00 0.00 0.00 18 1015.3
20220815192517 91 186 2.0 9.0 0.00 0.00 0.00 18 1015.3
20220815191520 91 220 2.0 7.0 0.00 0.00 0.00 18 1015.3
20220815190517 91 205 2.0 7.0 0.00 0.00 0.00 18 1015.3
20220815185519 91 192 2.0 7.0 0.00 0.00 0.00 18 1015.3
20220815180516 90 199 3.0 7.0 0.00 0.00 0.00 19 1015.3
20220815175517 89 198 4.0 9.0 0.00 0.00 0.00 19 1015.3
20220815174516 89 178 3.0 9.0 0.00 0.00 0.00 18 1015.3
20220815174018 89 171 3.0 6.0 0.00 0.00 0.00 19 1015.3
20220815173527 89 193 3.0 6.0 0.00 0.00 0.00 19 1015.3
20220815172521 88 2 1.0 2.0 0.00 0.00 0.00 19 1015.3
20220815165020 87 185 1.0 3.0 0.00 0.00 0.00 19 1015.1
20220815164018 86 168 2.0 3.0 0.00 0.00 0.00 19 1015.1
20220815162518 82 68 0.0 2.0 0.00 0.00 0.00 22 1015.8
20220815161520 81 61 0.0 2.0 0.00 0.00 0.00 23 1015.8
20220815152516 76 60 0.0 0.0 0.00 0.00 0.00 27 1015.8
20220815151515 76 60 0.0 0.0 0.00 0.00 0.00 27 1015.8
20220815143518 72 60 1.0 2.0 0.00 0.00 0.00 28 1015.8
20220815141515 71 60 1.0 2.0 0.00 0.00 0.00 27 1015.8
20220815135515 71 295 0.0 2.0 0.00 0.00 0.00 26 1015.8
20220815133515 71 302 0.0 0.0 0.00 0.00 0.00 26 1015.8
20220815132517 71 307 0.0 0.0 0.00 0.00 0.00 26 1015.8
20220815123515 71 307 0.0 0.0 0.00 0.00 0.00 26 1015.8
20220815122516 71 307 0.0 0.0 0.00 0.00 0.00 26 1015.8
20220815122016 71 307 1.0 2.0 0.00 0.00 0.00 25 1015.8
20220815121516 72 307 1.0 3.0 0.00 0.00 0.00 25 1015.8
20220815121017 73 307 1.0 3.0 0.00 0.00 0.00 25 1015.8
20220815120535 73 307 1.0 3.0 0.00 0.00 0.00 25 1015.8
20220815114515 73 307 2.0 2.0 0.00 0.00 0.00 24 1015.8
20220815110517 73 307 2.0 2.0 0.00 0.00 0.00 24 1015.8
20220815110017 73 307 2.0 2.0 0.00 0.00 0.00 24 1015.8
20220815105519 73 307 1.0 2.0 0.00 0.00 0.00 24 1015.8
20220815102515 73 307 2.0 3.0 0.00 0.00 0.00 24 1015.8
20220815102016 73 307 1.0 3.0 0.00 0.00 0.00 24 1015.8
20220815100515 73 307 1.0 2.0 0.00 0.00 0.00 24 1015.8
20220815095516 72 307 2.0 3.0 0.00 0.00 0.00 24 1015.8
20220815094515 72 307 2.0 3.0 0.00 0.00 0.00 24 1015.8
20220815094015 72 307 2.0 3.0 0.00 0.00 0.00 24 1015.8
20220815092515 72 307 2.0 3.0 0.00 0.00 0.00 24 1015.8
20220815091016 72 307 2.0 2.0 0.00 0.00 0.00 25 1015.8
20220815090516 72 307 2.0 3.0 0.00 0.00 0.00 25 1015.8
20220815090015 72 307 2.0 3.0 0.00 0.00 0.00 25 1015.8
20220815084516 71 307 2.0 3.0 0.00 0.00 0.00 25 1015.8
20220815083516 71 307 2.0 3.0 0.00 0.00 0.00 25 1015.8
20220815075015 70 307 1.0 3.0 0.00 0.00 0.00 28 1015.8
20220815074015 69 307 0.0 3.0 0.00 0.00 0.00 28 1015.8
20220815073015 69 307 0.0 3.0 0.00 0.00 0.00 28 1015.8
20220815065017 69 301 0.0 3.0 0.00 0.00 0.00 29 1016.1
20220815060015 71 300 0.0 1.0 0.00 0.00 0.00 27 1016.1
20220815055016 72 300 0.0 3.0 0.00 0.00 0.00 27 1016.1
20220815052016 73 300 0.0 3.0 0.00 0.00 0.00 25 1016.1
20220815050017 74 296 0.0 0.0 0.00 0.00 0.00 24 1016.1
20220815041517 77 300 0.0 0.0 0.00 0.00 0.00 22 1018.0
20220815040517 78 300 0.0 0.0 0.00 0.00 0.00 21 1018.0
20220815035517 79 300 0.0 0.0 0.00 0.00 0.00 21 1018.0
20220815033024 81 300 0.0 1.0 0.00 0.00 0.00 19 1018.0
20220815032517 81 300 0.0 1.0 0.00 0.00 0.00 19 1018.0
20220815022023 86 297 1.0 3.0 0.00 0.00 0.00 16 1018.0
20220815021517 86 295 1.0 3.0 0.00 0.00 0.00 16 1018.0
20220815020017 87 289 1.0 7.0 0.00 0.00 0.00 15 1018.0
20220815015517 88 279 1.0 7.0 0.00 0.00 0.00 15 1018.0